createdAt,value
2023-01-19T00:00:37.579Z,7.27
2023-01-19T00:03:04.825Z,7.02
2023-01-19T00:05:31.333Z,6.69
2023-01-19T00:07:58.473Z,6.70
2023-01-19T00:10:25.116Z,6.66
2023-01-19T00:12:51.576Z,6.69
2023-01-19T00:15:18.111Z,6.33
2023-01-19T00:17:44.570Z,6.81
2023-01-19T00:20:11.364Z,6.09
2023-01-19T00:22:37.855Z,6.20
2023-01-19T00:25:04.490Z,5.92
2023-01-19T00:27:30.923Z,5.83
2023-01-19T00:29:57.373Z,5.77
2023-01-19T00:32:23.955Z,5.85
2023-01-19T00:34:50.463Z,5.85
2023-01-19T00:37:17.350Z,5.67
2023-01-19T00:39:43.888Z,6.06
2023-01-19T00:42:13.163Z,5.99
2023-01-19T00:44:39.652Z,6.25
2023-01-19T00:47:06.126Z,5.97
2023-01-19T00:49:32.616Z,6.69
2023-01-19T00:51:59.122Z,6.48
2023-01-19T00:54:26.925Z,5.98
2023-01-19T00:56:54.100Z,5.99
2023-01-19T00:59:20.565Z,6.53
2023-01-19T01:01:47.149Z,5.63
2023-01-19T01:04:14.432Z,5.32
2023-01-19T01:06:40.902Z,4.89
2023-01-19T01:09:07.387Z,4.62
2023-01-19T01:11:33.855Z,4.78
2023-01-19T01:14:00.312Z,5.00
2023-01-19T01:16:26.958Z,5.02
2023-01-19T01:18:53.419Z,4.62
2023-01-19T01:21:19.919Z,4.76
2023-01-19T01:23:46.415Z,4.62
2023-01-19T01:26:12.887Z,4.51
2023-01-19T01:28:39.352Z,4.31
2023-01-19T01:31:05.819Z,4.43
2023-01-19T01:33:40.718Z,4.48
2023-01-19T01:36:08.923Z,4.74
2023-01-19T01:38:35.380Z,4.02
2023-01-19T01:41:02.111Z,4.32
2023-01-19T01:43:52.533Z,4.36
2023-01-19T01:46:19.028Z,4.29
2023-01-19T01:48:54.723Z,3.99
2023-01-19T01:51:33.794Z,4.26
2023-01-19T01:54:10.415Z,4.41
2023-01-19T01:56:51.219Z,4.14
2023-01-19T01:59:32.270Z,4.62
2023-01-19T02:02:04.364Z,4.36
2023-01-19T02:04:32.063Z,4.29
2023-01-19T02:06:58.546Z,4.19
2023-01-19T02:09:31.300Z,4.35
2023-01-19T02:11:58.015Z,4.43
2023-01-19T02:14:24.547Z,4.35
2023-01-19T02:16:51.330Z,3.95
2023-01-19T02:19:28.115Z,4.28
2023-01-19T02:22:13.055Z,4.39
2023-01-19T02:24:39.913Z,4.07
2023-01-19T02:27:08.227Z,3.79
2023-01-19T02:29:35.438Z,4.02
2023-01-19T02:32:02.148Z,4.02
2023-01-19T02:34:30.060Z,4.06
2023-01-19T02:37:01.019Z,4.11
2023-01-19T02:39:32.601Z,4.22
2023-01-19T02:42:08.037Z,4.22
2023-01-19T02:44:37.556Z,4.02
2023-01-19T02:47:05.467Z,4.40
2023-01-19T02:49:32.027Z,4.12
2023-01-19T02:51:59.748Z,4.12
2023-01-19T02:54:59.428Z,4.03
2023-01-19T02:57:52.857Z,4.20
2023-01-19T03:00:31.759Z,4.30
2023-01-19T03:03:44.329Z,4.19
2023-01-19T03:06:39.415Z,4.54
2023-01-19T03:09:11.943Z,4.57
2023-01-19T03:11:46.835Z,4.79
2023-01-19T03:14:21.663Z,4.99
2023-01-19T03:16:57.269Z,4.59
2023-01-19T03:19:37.935Z,4.87
2023-01-19T03:22:12.758Z,4.45
2023-01-19T03:24:45.025Z,4.53
2023-01-19T03:27:42.951Z,4.49
2023-01-19T03:30:17.736Z,4.73
2023-01-19T03:32:56.466Z,4.52
2023-01-19T03:35:29.242Z,4.69
2023-01-19T03:37:56.324Z,4.65
2023-01-19T03:40:27.638Z,4.87
2023-01-19T03:42:56.303Z,4.66
2023-01-19T03:45:23.587Z,4.62
2023-01-19T03:47:50.662Z,4.85
2023-01-19T03:50:26.500Z,4.68
2023-01-19T03:53:12.109Z,4.58
2023-01-19T03:55:42.039Z,4.44
2023-01-19T03:58:08.616Z,4.68
2023-01-19T04:00:35.928Z,4.69
2023-01-19T04:03:04.039Z,4.71
2023-01-19T04:05:31.379Z,4.67
2023-01-19T04:07:57.961Z,4.68
2023-01-19T04:10:25.286Z,4.61
2023-01-19T04:13:01.017Z,4.39
2023-01-19T04:15:29.158Z,4.18
2023-01-19T04:18:00.323Z,4.36
2023-01-19T04:20:28.176Z,4.57
2023-01-19T04:22:58.693Z,4.38
2023-01-19T04:25:25.296Z,4.46
2023-01-19T04:27:52.590Z,4.13
2023-01-19T04:30:19.290Z,4.27
2023-01-19T04:32:47.925Z,4.55
2023-01-19T04:35:17.492Z,4.21
2023-01-19T04:37:44.028Z,4.27
2023-01-19T04:40:11.451Z,4.52
2023-01-19T04:42:37.907Z,4.49
2023-01-19T04:45:04.626Z,4.38
2023-01-19T04:47:31.081Z,4.51
2023-01-19T04:49:57.521Z,4.48
2023-01-19T04:52:23.980Z,4.58
2023-01-19T04:54:50.434Z,4.55
2023-01-19T04:57:16.881Z,4.31
2023-01-19T04:59:43.358Z,4.61
2023-01-19T05:02:09.858Z,4.93
2023-01-19T05:04:36.325Z,4.65
2023-01-19T05:07:02.769Z,4.99
2023-01-19T05:09:29.235Z,5.20
2023-01-19T05:11:55.772Z,4.85
2023-01-19T05:14:22.366Z,4.91
2023-01-19T05:16:48.814Z,5.15
2023-01-19T05:19:15.281Z,5.11
2023-01-19T05:21:41.765Z,5.08
2023-01-19T05:24:08.502Z,5.35
2023-01-19T05:26:35.004Z,5.32
2023-01-19T05:29:01.484Z,5.46
2023-01-19T05:31:28.006Z,5.55
2023-01-19T05:33:54.505Z,5.81
2023-01-19T05:36:21.015Z,5.86
2023-01-19T05:38:47.527Z,5.87
2023-01-19T05:41:13.983Z,6.07
2023-01-19T05:43:40.506Z,6.27
2023-01-19T05:46:06.975Z,6.07
2023-01-19T05:48:33.648Z,6.29
2023-01-19T05:51:01.389Z,6.47
2023-01-19T05:53:28.996Z,6.38
2023-01-19T05:56:07.741Z,6.18
2023-01-19T05:58:35.105Z,6.30
2023-01-19T06:01:03.418Z,6.88
2023-01-19T06:03:29.925Z,6.78
2023-01-19T06:05:58.113Z,6.36
2023-01-19T06:08:24.663Z,6.51
2023-01-19T06:10:51.271Z,6.33
2023-01-19T06:13:17.760Z,7.04
2023-01-19T06:15:44.787Z,6.75
2023-01-19T06:18:11.923Z,6.44
2023-01-19T06:20:38.497Z,6.74
2023-01-19T06:23:04.979Z,6.57
2023-01-19T06:25:31.504Z,6.56
2023-01-19T06:27:57.943Z,6.16
2023-01-19T06:30:24.454Z,6.32
2023-01-19T06:32:50.903Z,6.25
2023-01-19T06:35:17.394Z,6.41
2023-01-19T06:37:43.841Z,5.93
2023-01-19T06:40:13.615Z,6.11
2023-01-19T06:42:40.918Z,5.96
2023-01-19T06:45:08.144Z,5.80
2023-01-19T06:47:34.623Z,6.11
2023-01-19T06:50:01.110Z,5.98
2023-01-19T06:52:27.746Z,5.62
2023-01-19T06:54:54.216Z,5.63
2023-01-19T06:57:21.956Z,5.96
2023-01-19T06:59:48.418Z,6.37
2023-01-19T07:02:27.271Z,6.14
2023-01-19T07:04:55.659Z,6.53
2023-01-19T07:07:22.134Z,5.97
2023-01-19T07:09:48.685Z,6.18
2023-01-19T07:12:15.159Z,6.48
2023-01-19T07:14:42.189Z,6.55
2023-01-19T07:17:08.667Z,6.73
2023-01-19T07:19:35.202Z,6.41
2023-01-19T07:22:01.906Z,5.92
2023-01-19T07:24:28.863Z,6.03
2023-01-19T07:26:55.318Z,6.40
2023-01-19T07:29:24.591Z,6.54
2023-01-19T07:31:51.597Z,7.79
2023-01-19T07:34:18.093Z,7.40
2023-01-19T07:36:44.555Z,8.26
2023-01-19T07:39:11.070Z,7.38
2023-01-19T07:41:37.651Z,7.46
2023-01-19T07:44:04.389Z,6.87
2023-01-19T07:46:30.954Z,6.81
2023-01-19T07:48:57.455Z,6.67
2023-01-19T07:51:23.910Z,6.58
2023-01-19T07:53:50.974Z,6.93
2023-01-19T07:56:17.463Z,6.94
2023-01-19T07:58:43.939Z,7.07
2023-01-19T08:01:12.991Z,6.79
2023-01-19T08:03:39.600Z,6.33
2023-01-19T08:06:06.757Z,6.39
2023-01-19T08:08:34.180Z,6.36
2023-01-19T08:11:00.921Z,6.24
2023-01-19T08:13:27.655Z,7.12
2023-01-19T08:15:54.529Z,6.98
2023-01-19T08:18:21.437Z,7.02
2023-01-19T08:20:48.032Z,7.13
2023-01-19T08:23:14.703Z,6.64
2023-01-19T08:25:43.099Z,7.30
2023-01-19T08:28:12.898Z,7.71
2023-01-19T08:30:42.709Z,8.23
2023-01-19T08:33:09.350Z,8.45
2023-01-19T08:35:41.887Z,8.96
2023-01-19T08:38:09.975Z,8.37
2023-01-19T08:40:39.044Z,7.08
2023-01-19T08:43:09.147Z,6.64
2023-01-19T08:45:37.500Z,6.72
2023-01-19T08:48:04.857Z,7.00
2023-01-19T08:50:32.661Z,7.01
2023-01-19T08:53:01.774Z,6.49
2023-01-19T08:55:30.033Z,6.57
2023-01-19T08:57:57.874Z,6.78
2023-01-19T09:00:24.995Z,7.48
2023-01-19T09:02:51.555Z,7.50
2023-01-19T09:05:18.335Z,7.00
2023-01-19T09:07:46.297Z,7.27
2023-01-19T09:10:12.900Z,7.52
2023-01-19T09:12:39.540Z,8.70
2023-01-19T09:15:07.032Z,8.39
2023-01-19T09:17:33.565Z,8.63
2023-01-19T09:20:00.038Z,8.14
2023-01-19T09:22:26.524Z,7.84
2023-01-19T09:24:52.996Z,8.04
2023-01-19T09:27:19.464Z,9.09
2023-01-19T09:29:45.909Z,9.08
2023-01-19T09:32:12.379Z,10.15
2023-01-19T09:34:38.875Z,8.97
2023-01-19T09:37:05.325Z,9.11
2023-01-19T09:39:31.816Z,8.86
2023-01-19T09:42:19.298Z,8.48
2023-01-19T09:44:49.704Z,8.66
2023-01-19T09:47:24.733Z,7.61
2023-01-19T09:50:06.386Z,7.53
2023-01-19T09:52:41.398Z,7.68
2023-01-19T09:55:22.355Z,7.46
2023-01-19T09:57:48.826Z,7.67
2023-01-19T10:00:17.785Z,7.67
2023-01-19T10:02:54.453Z,7.93
2023-01-19T10:05:27.514Z,8.29
2023-01-19T10:08:17.422Z,7.50
2023-01-19T10:10:53.004Z,7.44
2023-01-19T10:13:34.298Z,7.38
2023-01-19T10:16:28.246Z,7.04
2023-01-19T10:19:23.011Z,6.57
2023-01-19T10:21:51.502Z,7.00
2023-01-19T10:24:26.379Z,7.23
2023-01-19T10:26:54.931Z,6.95
2023-01-19T10:29:33.904Z,6.51
2023-01-19T10:32:25.236Z,7.18
2023-01-19T10:34:53.203Z,6.84
2023-01-19T10:37:36.637Z,7.23
2023-01-19T10:40:08.822Z,7.26
2023-01-19T10:42:37.466Z,7.51
2023-01-19T10:45:14.585Z,6.52
2023-01-19T10:47:43.743Z,6.72
2023-01-19T10:50:23.784Z,6.27
2023-01-19T10:52:56.379Z,6.89
2023-01-19T10:55:31.820Z,6.95
2023-01-19T10:57:59.650Z,6.91
2023-01-19T11:00:41.851Z,6.57
2023-01-19T11:03:31.360Z,6.20
2023-01-19T11:06:26.229Z,7.47
2023-01-19T11:09:08.704Z,7.16
2023-01-19T11:11:44.078Z,6.90
2023-01-19T11:14:14.155Z,6.22
2023-01-19T11:16:47.976Z,6.89
2023-01-19T11:19:24.418Z,6.67
2023-01-19T11:21:51.264Z,6.70
2023-01-19T11:24:18.857Z,6.38
2023-01-19T11:26:50.126Z,6.54
2023-01-19T11:29:21.271Z,8.55
2023-01-19T11:31:48.665Z,7.29
2023-01-19T11:34:33.341Z,6.42
2023-01-19T11:37:08.659Z,7.10
2023-01-19T11:39:57.607Z,7.36
2023-01-19T11:42:26.010Z,7.51
2023-01-19T11:44:59.134Z,7.73
2023-01-19T11:47:30.530Z,7.36
2023-01-19T11:49:59.020Z,7.34
2023-01-19T11:52:37.511Z,7.04
2023-01-19T11:55:13.311Z,7.35
2023-01-19T11:57:47.300Z,7.26
2023-01-19T12:00:27.655Z,7.39
2023-01-19T12:03:23.034Z,6.35
2023-01-19T12:05:55.210Z,6.83
2023-01-19T12:08:29.325Z,7.72
2023-01-19T12:10:59.927Z,7.19
2023-01-19T12:13:27.831Z,7.05
2023-01-19T12:16:00.811Z,7.37
2023-01-19T12:18:40.388Z,7.04
2023-01-19T12:21:06.820Z,6.77
2023-01-19T12:23:42.413Z,6.92
2023-01-19T12:26:34.424Z,6.59
2023-01-19T12:29:11.089Z,6.70
2023-01-19T12:31:38.327Z,6.28
2023-01-19T12:34:23.565Z,7.70
2023-01-19T12:36:51.634Z,7.79
2023-01-19T12:39:21.096Z,6.65
2023-01-19T12:42:03.353Z,5.93
2023-01-19T12:44:31.625Z,6.38
2023-01-19T12:47:00.193Z,5.97
2023-01-19T12:49:29.454Z,6.34
2023-01-19T12:52:26.514Z,5.99
2023-01-19T12:55:02.057Z,6.41
2023-01-19T12:57:38.781Z,5.59
2023-01-19T13:00:27.415Z,5.89
2023-01-19T13:02:54.020Z,6.25
2023-01-19T13:05:33.568Z,6.19
2023-01-19T13:08:06.370Z,5.94
2023-01-19T13:11:11.994Z,6.96
2023-01-19T13:13:52.337Z,5.39
2023-01-19T13:16:19.044Z,5.78
2023-01-19T13:18:58.011Z,5.76
2023-01-19T13:21:44.802Z,4.91
2023-01-19T13:24:15.587Z,6.03
2023-01-19T13:26:51.151Z,5.60
2023-01-19T13:29:26.832Z,5.97
2023-01-19T13:31:54.415Z,6.08
2023-01-19T13:34:27.112Z,6.02
2023-01-19T13:36:57.201Z,5.60
2023-01-19T13:39:29.855Z,5.19
2023-01-19T13:42:02.189Z,5.09
2023-01-19T13:44:43.041Z,4.98
2023-01-19T13:47:25.705Z,4.65
2023-01-19T13:49:58.551Z,4.88
2023-01-19T13:52:28.306Z,5.05
2023-01-19T13:55:03.553Z,5.26
2023-01-19T13:57:33.460Z,5.98
2023-01-19T14:00:11.841Z,6.49
2023-01-19T14:02:40.513Z,5.96
2023-01-19T14:05:21.968Z,5.63
2023-01-19T14:07:58.868Z,5.42
2023-01-19T14:10:25.379Z,5.04
2023-01-19T14:13:01.976Z,5.37
2023-01-19T14:15:30.418Z,5.35
2023-01-19T14:18:30.484Z,4.91
2023-01-19T14:21:05.703Z,4.98
2023-01-19T14:23:43.125Z,5.54
2023-01-19T14:26:37.511Z,5.49
2023-01-19T14:29:09.858Z,4.99
2023-01-19T14:31:45.522Z,7.20
2023-01-19T14:34:33.142Z,7.26
2023-01-19T14:37:01.745Z,5.68
2023-01-19T14:39:32.814Z,5.40
2023-01-19T14:42:06.212Z,5.63
2023-01-19T14:44:37.635Z,5.87
2023-01-19T14:47:06.591Z,5.56
2023-01-19T14:49:40.754Z,5.26
2023-01-19T14:52:21.355Z,5.46
2023-01-19T14:54:48.963Z,5.14
2023-01-19T14:57:15.473Z,5.54
2023-01-19T14:59:42.455Z,5.16
2023-01-19T15:02:08.990Z,5.57
2023-01-19T15:04:35.592Z,6.31
2023-01-19T15:07:02.533Z,5.86
2023-01-19T15:09:29.105Z,7.37
2023-01-19T15:11:55.814Z,6.47
2023-01-19T15:14:22.693Z,5.78
2023-01-19T15:16:49.776Z,5.37
2023-01-19T15:19:17.752Z,5.47
2023-01-19T15:21:44.725Z,6.04
2023-01-19T15:24:12.395Z,5.90
2023-01-19T15:26:42.011Z,5.76
2023-01-19T15:29:23.315Z,6.25
2023-01-19T15:31:50.446Z,5.80
2023-01-19T15:34:17.022Z,5.02
2023-01-19T15:36:44.077Z,5.75
2023-01-19T15:39:11.159Z,5.93
2023-01-19T15:41:40.924Z,5.82
2023-01-19T15:44:10.294Z,5.32
2023-01-19T15:46:37.463Z,5.15
2023-01-19T15:49:04.288Z,5.26
2023-01-19T15:51:31.127Z,5.80
2023-01-19T15:53:57.604Z,5.72
2023-01-19T15:56:27.178Z,5.52
2023-01-19T15:58:54.780Z,5.66
2023-01-19T16:01:24.502Z,5.74
2023-01-19T16:03:51.078Z,5.70
2023-01-19T16:06:17.796Z,5.94
2023-01-19T16:08:44.474Z,6.66
2023-01-19T16:11:14.511Z,7.56
2023-01-19T16:13:44.464Z,9.73
2023-01-19T16:16:17.431Z,9.54
2023-01-19T16:18:44.368Z,7.44
2023-01-19T16:21:11.219Z,7.67
2023-01-19T16:23:38.022Z,7.62
2023-01-19T16:26:08.227Z,7.72
2023-01-19T16:28:36.765Z,7.80
2023-01-19T16:31:04.353Z,7.78
2023-01-19T16:33:30.839Z,7.97
2023-01-19T16:35:57.852Z,7.66
2023-01-19T16:38:24.453Z,7.80
2023-01-19T16:40:51.412Z,7.98
2023-01-19T16:43:17.864Z,8.63
2023-01-19T16:45:58.462Z,9.04
2023-01-19T16:48:26.412Z,8.13
2023-01-19T16:51:06.721Z,8.44
2023-01-19T16:53:34.358Z,8.03
2023-01-19T16:56:27.007Z,7.97
2023-01-19T16:58:58.549Z,8.67
2023-01-19T17:01:27.862Z,9.16
2023-01-19T17:03:55.415Z,9.98
2023-01-19T17:06:24.162Z,10.95
2023-01-19T17:08:52.443Z,10.34
2023-01-19T17:11:25.140Z,10.60
2023-01-19T17:13:56.118Z,9.70
2023-01-19T17:16:26.844Z,9.20
2023-01-19T17:18:54.036Z,9.10
2023-01-19T17:21:20.513Z,8.99
2023-01-19T17:23:49.723Z,9.63
2023-01-19T17:26:17.877Z,9.71
2023-01-19T17:28:44.783Z,9.91
2023-01-19T17:31:14.427Z,9.65
2023-01-19T17:33:44.478Z,9.21
2023-01-19T17:36:14.243Z,10.67
2023-01-19T17:38:41.624Z,10.48
2023-01-19T17:41:18.324Z,10.66
2023-01-19T17:43:45.290Z,11.67
2023-01-19T17:46:12.602Z,11.49
2023-01-19T17:48:39.675Z,11.99
2023-01-19T17:51:09.471Z,11.98
2023-01-19T17:53:38.252Z,12.17
2023-01-19T17:56:10.483Z,12.48
2023-01-19T17:58:37.884Z,12.66
2023-01-19T18:01:15.639Z,12.98
2023-01-19T18:03:43.182Z,12.90
2023-01-19T18:06:10.097Z,12.74
2023-01-19T18:08:42.516Z,12.87
2023-01-19T18:11:10.824Z,13.99
2023-01-19T18:13:38.765Z,13.69
2023-01-19T18:16:08.730Z,13.64
2023-01-19T18:18:36.903Z,13.19
2023-01-19T18:21:06.584Z,13.33
2023-01-19T18:23:33.663Z,13.79
2023-01-19T18:26:13.046Z,13.71
2023-01-19T18:28:39.783Z,14.07
2023-01-19T18:31:11.692Z,14.53
2023-01-19T18:33:39.276Z,14.36
2023-01-19T18:36:06.298Z,14.52
2023-01-19T18:38:33.788Z,15.24
2023-01-19T18:41:08.203Z,14.50
2023-01-19T18:43:34.883Z,14.26
2023-01-19T18:46:01.391Z,13.44
2023-01-19T18:48:27.939Z,13.68
2023-01-19T18:50:54.499Z,13.56
2023-01-19T18:53:21.043Z,13.96
2023-01-19T18:55:58.511Z,13.36
2023-01-19T18:58:25.719Z,14.31
2023-01-19T19:00:52.211Z,12.84
2023-01-19T19:03:18.716Z,11.84
2023-01-19T19:05:45.245Z,12.83
2023-01-19T19:08:12.269Z,12.15
2023-01-19T19:10:40.879Z,12.55
2023-01-19T19:13:08.209Z,11.99
2023-01-19T19:15:34.751Z,11.36
2023-01-19T19:18:01.202Z,11.44
2023-01-19T19:20:27.664Z,11.93
2023-01-19T19:22:55.095Z,11.43
2023-01-19T19:25:21.658Z,11.10
2023-01-19T19:27:52.492Z,10.89
2023-01-19T19:30:34.099Z,10.58
2023-01-19T19:33:00.640Z,10.84
2023-01-19T19:35:27.174Z,10.44
2023-01-19T19:37:53.650Z,11.06
2023-01-19T19:40:20.164Z,11.54
2023-01-19T19:42:46.632Z,11.55
2023-01-19T19:45:13.117Z,11.47
2023-01-19T19:47:39.601Z,10.52
2023-01-19T19:50:06.471Z,11.21
2023-01-19T19:52:37.975Z,11.11
2023-01-19T19:55:05.195Z,13.12
2023-01-19T19:57:31.663Z,11.62
2023-01-19T19:59:58.137Z,11.28
2023-01-19T20:02:24.604Z,10.91
2023-01-19T20:04:51.083Z,10.88
2023-01-19T20:07:18.067Z,10.36
2023-01-19T20:09:44.649Z,10.29
2023-01-19T20:12:11.231Z,9.98
2023-01-19T20:14:37.747Z,9.61
2023-01-19T20:17:04.343Z,9.11
2023-01-19T20:19:32.531Z,10.33
2023-01-19T20:21:59.195Z,9.89
2023-01-19T20:24:25.688Z,9.77
2023-01-19T20:26:53.271Z,10.34
2023-01-19T20:29:20.240Z,11.03
2023-01-19T20:31:54.161Z,9.76
2023-01-19T20:34:23.436Z,9.11
2023-01-19T20:36:49.950Z,9.53
2023-01-19T20:39:18.330Z,10.25
2023-01-19T20:41:45.656Z,9.91
2023-01-19T20:44:15.472Z,10.47
2023-01-19T20:46:42.966Z,10.12
2023-01-19T20:49:09.528Z,8.80
2023-01-19T20:51:36.092Z,9.10
2023-01-19T20:54:03.180Z,9.76
2023-01-19T20:56:29.648Z,9.94
2023-01-19T20:58:57.810Z,9.27
2023-01-19T21:01:24.990Z,8.98
2023-01-19T21:03:52.004Z,8.70
2023-01-19T21:06:19.950Z,8.46
2023-01-19T21:08:47.606Z,8.38
2023-01-19T21:11:14.359Z,8.20
2023-01-19T21:13:41.047Z,8.01
2023-01-19T21:16:07.979Z,8.16
2023-01-19T21:18:34.544Z,8.07
2023-01-19T21:21:01.027Z,8.09
2023-01-19T21:23:27.846Z,7.77
2023-01-19T21:25:57.550Z,7.02
2023-01-19T21:28:25.737Z,7.18
2023-01-19T21:30:53.891Z,6.74
2023-01-19T21:33:23.383Z,6.55
2023-01-19T21:35:54.753Z,6.23
2023-01-19T21:38:23.731Z,7.15
2023-01-19T21:40:50.401Z,7.49
2023-01-19T21:43:17.301Z,6.76
2023-01-19T21:45:43.760Z,7.30
2023-01-19T21:48:10.289Z,9.00
2023-01-19T21:50:36.838Z,6.70
2023-01-19T21:53:04.540Z,5.48
2023-01-19T21:55:31.204Z,5.15
2023-01-19T21:57:57.679Z,5.76
2023-01-19T22:00:24.269Z,5.68
2023-01-19T22:03:03.101Z,5.02
2023-01-19T22:05:30.140Z,5.21
2023-01-19T22:07:56.671Z,5.03
2023-01-19T22:10:23.151Z,4.81
2023-01-19T22:12:49.680Z,5.10
2023-01-19T22:15:16.200Z,5.38
2023-01-19T22:17:42.688Z,5.28
2023-01-19T22:20:09.613Z,5.73
2023-01-19T22:22:36.071Z,5.73
2023-01-19T22:25:03.042Z,5.91
2023-01-19T22:27:30.476Z,5.61
2023-01-19T22:29:56.959Z,6.05
2023-01-19T22:32:23.482Z,7.58
2023-01-19T22:34:49.964Z,10.11
2023-01-19T22:37:16.450Z,10.88
2023-01-19T22:39:42.971Z,11.74
2023-01-19T22:42:09.468Z,11.23
2023-01-19T22:44:35.946Z,10.39
2023-01-19T22:47:02.597Z,10.04
2023-01-19T22:49:29.183Z,9.65
2023-01-19T22:51:55.852Z,9.54
2023-01-19T22:54:22.335Z,9.32
2023-01-19T22:56:49.237Z,9.58
2023-01-19T22:59:15.932Z,9.67
2023-01-19T23:01:44.182Z,10.99
2023-01-19T23:04:14.102Z,10.78
2023-01-19T23:06:40.583Z,10.89
2023-01-19T23:09:12.881Z,12.48
2023-01-19T23:11:42.379Z,12.97
2023-01-19T23:14:14.109Z,10.55
2023-01-19T23:16:40.671Z,9.69
2023-01-19T23:19:07.333Z,9.53
2023-01-19T23:21:34.267Z,9.70
2023-01-19T23:24:03.229Z,9.34
2023-01-19T23:26:31.116Z,8.97
2023-01-19T23:29:00.858Z,8.88
2023-01-19T23:31:31.682Z,8.99
2023-01-19T23:34:00.743Z,9.05
2023-01-19T23:36:29.776Z,8.62
2023-01-19T23:39:16.589Z,8.75
2023-01-19T23:41:43.871Z,9.63
2023-01-19T23:44:10.485Z,9.80
2023-01-19T23:46:43.750Z,9.20
2023-01-19T23:49:10.469Z,9.94
2023-01-19T23:51:36.938Z,10.15
2023-01-19T23:54:03.648Z,10.47
2023-01-19T23:56:33.804Z,10.72
2023-01-19T23:59:04.361Z,10.29
